createdAt,value
2022-10-18T00:00:32.132Z,37.75
2022-10-18T00:01:32.064Z,37.75
2022-10-18T00:02:32.126Z,37.75
2022-10-18T00:03:32.207Z,37.96
2022-10-18T00:04:32.047Z,38.06
2022-10-18T00:05:32.032Z,38.17
2022-10-18T00:06:32.088Z,38.63
2022-10-18T00:07:32.352Z,38.70
2022-10-18T00:08:32.018Z,38.63
2022-10-18T00:09:31.996Z,38.77
2022-10-18T00:10:31.977Z,38.63
2022-10-18T00:11:32.023Z,38.56
2022-10-18T00:12:32.107Z,38.34
2022-10-18T00:13:32.004Z,38.06
2022-10-18T00:14:31.941Z,38.24
2022-10-18T00:15:31.930Z,38.03
2022-10-18T00:16:31.958Z,37.82
2022-10-18T00:17:32.366Z,37.68
2022-10-18T00:18:31.941Z,37.72
2022-10-18T00:19:31.939Z,37.62
2022-10-18T00:20:31.878Z,37.48
2022-10-18T00:21:31.958Z,37.75
2022-10-18T00:22:32.138Z,37.55
2022-10-18T00:23:31.892Z,37.68
2022-10-18T00:24:31.831Z,37.92
2022-10-18T00:25:31.822Z,38.45
2022-10-18T00:26:31.817Z,38.31
2022-10-18T00:27:31.823Z,38.56
2022-10-18T00:28:31.886Z,38.56
2022-10-18T00:29:31.786Z,38.74
2022-10-18T00:30:31.859Z,38.96
2022-10-18T00:31:31.785Z,38.88
2022-10-18T00:32:32.197Z,38.74
2022-10-18T00:33:31.784Z,38.52
2022-10-18T00:34:31.773Z,38.63
2022-10-18T00:35:31.737Z,38.56
2022-10-18T00:36:31.736Z,38.56
2022-10-18T00:37:31.698Z,38.67
2022-10-18T00:38:31.747Z,38.85
2022-10-18T00:39:31.745Z,38.77
2022-10-18T00:40:31.667Z,38.85
2022-10-18T00:41:31.734Z,39.06
2022-10-18T00:42:31.908Z,39.03
2022-10-18T00:43:31.641Z,39.14
2022-10-18T00:44:31.636Z,39.40
2022-10-18T00:45:31.661Z,39.36
2022-10-18T00:46:31.668Z,39.44
2022-10-18T00:47:31.609Z,39.77
2022-10-18T00:48:31.635Z,39.70
2022-10-18T00:49:31.584Z,39.55
2022-10-18T00:50:31.612Z,39.74
2022-10-18T00:51:31.606Z,39.89
2022-10-18T00:52:31.888Z,39.85
2022-10-18T00:53:31.544Z,39.62
2022-10-18T00:54:31.548Z,39.66
2022-10-18T00:55:31.627Z,39.66
2022-10-18T00:56:31.519Z,39.55
2022-10-18T00:57:31.572Z,39.55
2022-10-18T00:58:31.542Z,39.58
2022-10-18T00:59:31.494Z,39.58
2022-10-18T01:00:31.462Z,39.51
2022-10-18T01:01:31.556Z,39.62
2022-10-18T01:02:31.803Z,39.47
2022-10-18T01:03:31.444Z,39.55
2022-10-18T01:04:31.438Z,39.55
2022-10-18T01:05:31.418Z,39.70
2022-10-18T01:06:31.416Z,39.55
2022-10-18T01:07:31.663Z,39.66
2022-10-18T01:08:31.449Z,39.62
2022-10-18T01:09:31.375Z,39.58
2022-10-18T01:10:31.420Z,39.70
2022-10-18T01:11:31.353Z,39.81
2022-10-18T01:12:31.349Z,39.77
2022-10-18T01:13:31.333Z,39.89
2022-10-18T01:14:31.402Z,39.89
2022-10-18T01:15:31.326Z,39.74
2022-10-18T01:16:31.300Z,39.81
2022-10-18T01:17:31.685Z,39.51
2022-10-18T01:18:31.285Z,39.29
2022-10-18T01:19:31.278Z,38.81
2022-10-18T01:20:31.290Z,38.38
2022-10-18T01:21:31.262Z,38.38
2022-10-18T01:22:31.244Z,38.27
2022-10-18T01:23:31.294Z,38.17
2022-10-18T01:24:31.224Z,38.24
2022-10-18T01:25:31.223Z,38.24
2022-10-18T01:26:31.203Z,38.20
2022-10-18T01:27:31.528Z,37.99
2022-10-18T01:28:31.229Z,37.92
2022-10-18T01:29:31.224Z,37.82
2022-10-18T01:30:31.177Z,37.89
2022-10-18T01:31:31.159Z,38.13
2022-10-18T01:32:31.141Z,38.88
2022-10-18T01:33:31.175Z,39.14
2022-10-18T01:34:31.182Z,39.51
2022-10-18T01:35:31.115Z,39.36
2022-10-18T01:36:31.141Z,39.51
2022-10-18T01:37:31.300Z,39.77
2022-10-18T01:38:31.079Z,40.04
2022-10-18T01:39:31.081Z,40.24
2022-10-18T01:40:31.058Z,40.28
2022-10-18T01:41:31.051Z,40.43
2022-10-18T01:42:31.086Z,40.43
2022-10-18T01:43:31.039Z,40.67
2022-10-18T01:44:31.072Z,40.55
2022-10-18T01:45:31.016Z,40.87
2022-10-18T01:46:31.060Z,40.71
2022-10-18T01:47:31.330Z,40.59
2022-10-18T01:48:30.980Z,40.55
2022-10-18T01:49:31.121Z,40.51
2022-10-18T01:50:30.990Z,40.35
2022-10-18T01:51:30.981Z,39.74
2022-10-18T01:52:31.267Z,39.44
2022-10-18T01:53:30.981Z,38.74
2022-10-18T01:54:31.023Z,38.49
2022-10-18T01:55:30.961Z,38.24
2022-10-18T01:56:30.902Z,38.42
2022-10-18T01:57:30.898Z,38.24
2022-10-18T01:58:30.882Z,37.92
2022-10-18T01:59:30.930Z,37.62
2022-10-18T02:00:30.910Z,37.68
2022-10-18T02:01:30.849Z,37.75
2022-10-18T02:02:31.117Z,37.65
2022-10-18T02:03:30.839Z,37.62
2022-10-18T02:04:30.823Z,37.79
2022-10-18T02:05:30.812Z,37.86
2022-10-18T02:06:30.839Z,38.03
2022-10-18T02:07:30.845Z,38.13
2022-10-18T02:08:30.776Z,38.34
2022-10-18T02:09:30.769Z,38.42
2022-10-18T02:10:30.755Z,38.67
2022-10-18T02:11:30.757Z,38.70
2022-10-18T02:12:31.196Z,38.81
2022-10-18T02:13:30.733Z,38.67
2022-10-18T02:14:30.728Z,38.70
2022-10-18T02:15:30.706Z,38.96
2022-10-18T02:16:30.743Z,39.03
2022-10-18T02:17:30.714Z,38.88
2022-10-18T02:18:30.675Z,38.92
2022-10-18T02:19:30.681Z,38.74
2022-10-18T02:20:30.664Z,38.92
2022-10-18T02:21:30.697Z,38.70
2022-10-18T02:22:30.910Z,38.92
2022-10-18T02:23:30.641Z,38.92
2022-10-18T02:24:30.611Z,39.14
2022-10-18T02:25:30.664Z,38.99
2022-10-18T02:26:30.649Z,38.92
2022-10-18T02:27:30.664Z,39.44
2022-10-18T02:28:30.581Z,38.92
2022-10-18T02:29:30.580Z,39.10
2022-10-18T02:30:30.558Z,39.21
2022-10-18T02:31:30.596Z,39.17
2022-10-18T02:32:30.736Z,38.99
2022-10-18T02:33:30.527Z,39.25
2022-10-18T02:34:30.575Z,39.21
2022-10-18T02:35:30.541Z,39.25
2022-10-18T02:36:30.540Z,39.06
2022-10-18T02:37:30.531Z,39.36
2022-10-18T02:38:30.475Z,39.21
2022-10-18T02:39:30.506Z,39.25
2022-10-18T02:40:30.510Z,39.17
2022-10-18T02:41:30.454Z,39.51
2022-10-18T02:42:30.843Z,39.74
2022-10-18T02:43:30.475Z,39.89
2022-10-18T02:44:30.411Z,39.62
2022-10-18T02:45:30.450Z,39.55
2022-10-18T02:46:30.394Z,39.62
2022-10-18T02:47:30.609Z,39.58
2022-10-18T02:48:30.372Z,39.44
2022-10-18T02:49:30.380Z,39.47
2022-10-18T02:50:30.352Z,39.36
2022-10-18T02:51:30.421Z,39.10
2022-10-18T02:52:30.379Z,38.99
2022-10-18T02:53:30.373Z,38.99
2022-10-18T02:54:30.313Z,38.96
2022-10-18T02:55:30.317Z,38.92
2022-10-18T02:56:30.310Z,38.88
2022-10-18T02:57:30.540Z,38.77
2022-10-18T02:58:30.364Z,38.52
2022-10-18T02:59:30.314Z,38.42
2022-10-18T03:00:30.254Z,37.99
2022-10-18T03:01:30.361Z,37.99
2022-10-18T03:02:30.232Z,37.82
2022-10-18T03:03:30.217Z,37.92
2022-10-18T03:04:30.360Z,37.51
2022-10-18T03:05:30.246Z,37.68
2022-10-18T03:06:30.198Z,37.72
2022-10-18T03:07:30.448Z,37.86
2022-10-18T03:08:30.186Z,38.03
2022-10-18T03:09:30.317Z,37.86
2022-10-18T03:10:30.151Z,38.20
2022-10-18T03:11:30.189Z,37.99
2022-10-18T03:12:30.170Z,38.17
2022-10-18T03:14:30.106Z,38.49
2022-10-18T03:15:30.090Z,38.67
2022-10-18T03:16:30.095Z,38.81
2022-10-18T03:17:30.420Z,38.81
2022-10-18T03:18:30.114Z,38.77
2022-10-18T03:19:30.061Z,38.77
2022-10-18T03:20:30.073Z,38.52
2022-10-18T03:21:30.042Z,38.42
2022-10-18T03:22:30.109Z,38.49
2022-10-18T03:23:30.025Z,38.45
2022-10-18T03:24:30.015Z,38.49
2022-10-18T03:25:30.002Z,38.45
2022-10-18T03:26:30.020Z,38.70
2022-10-18T03:27:30.312Z,39.06
2022-10-18T03:28:30.076Z,38.92
2022-10-18T03:29:29.959Z,38.92
2022-10-18T03:30:29.982Z,39.03
2022-10-18T03:32:30.170Z,38.92
2022-10-18T03:33:29.905Z,38.81
2022-10-18T03:34:29.969Z,39.03
2022-10-18T03:35:29.894Z,38.81
2022-10-18T03:36:29.888Z,38.70
2022-10-18T03:37:29.922Z,38.67
2022-10-18T03:38:29.915Z,38.63
2022-10-18T03:39:29.894Z,38.56
2022-10-18T03:41:29.847Z,38.67
2022-10-18T03:42:30.178Z,38.45
2022-10-18T03:43:29.817Z,38.52
2022-10-18T03:44:29.857Z,38.24
2022-10-18T03:45:31.363Z,38.10
2022-10-18T03:46:29.785Z,38.20
2022-10-18T03:47:29.763Z,38.52
2022-10-18T03:48:29.758Z,38.74
2022-10-18T03:49:29.839Z,39.40
2022-10-18T03:50:29.740Z,39.66
2022-10-18T03:51:29.724Z,39.66
2022-10-18T03:52:30.021Z,39.85
2022-10-18T03:53:29.729Z,39.74
2022-10-18T03:54:29.741Z,39.70
2022-10-18T03:55:29.691Z,39.81
2022-10-18T03:56:29.680Z,40.28
2022-10-18T03:57:29.661Z,40.51
2022-10-18T03:58:29.758Z,40.99
2022-10-18T03:59:29.641Z,41.07
2022-10-18T04:00:29.680Z,41.52
2022-10-18T04:01:29.668Z,41.77
2022-10-18T04:02:29.834Z,41.98
2022-10-18T04:03:29.599Z,42.19
2022-10-18T04:04:29.613Z,42.67
2022-10-18T04:05:29.629Z,42.71
2022-10-18T04:06:29.622Z,42.71
2022-10-18T04:07:29.595Z,42.85
2022-10-18T04:08:29.561Z,42.94
2022-10-18T04:09:29.594Z,42.89
2022-10-18T04:10:29.603Z,42.94
2022-10-18T04:11:29.545Z,42.63
2022-10-18T04:12:29.812Z,42.15
2022-10-18T04:13:29.507Z,42.11
2022-10-18T04:14:29.504Z,42.07
2022-10-18T04:15:29.477Z,41.60
2022-10-18T04:16:29.571Z,41.65
2022-10-18T04:17:29.698Z,41.40
2022-10-18T04:18:29.451Z,41.31
2022-10-18T04:19:29.459Z,41.31
2022-10-18T04:20:29.445Z,41.73
2022-10-18T04:21:29.417Z,41.73
2022-10-18T04:22:29.514Z,41.56
2022-10-18T04:23:29.874Z,41.65
2022-10-18T04:24:29.392Z,41.31
2022-10-18T04:25:29.507Z,41.48
2022-10-18T04:26:29.418Z,41.35
2022-10-18T04:27:29.519Z,41.31
2022-10-18T04:28:29.480Z,41.27
2022-10-18T04:29:29.333Z,41.44
2022-10-18T04:30:29.329Z,41.73
2022-10-18T04:31:29.368Z,41.48
2022-10-18T04:32:29.378Z,41.73
2022-10-18T04:33:29.304Z,41.65
2022-10-18T04:34:29.431Z,41.69
2022-10-18T04:35:29.278Z,41.81
2022-10-18T04:36:29.286Z,41.65
2022-10-18T04:37:29.332Z,41.69
2022-10-18T04:38:29.314Z,41.65
2022-10-18T04:39:29.236Z,41.48
2022-10-18T04:40:29.238Z,41.69
2022-10-18T04:41:29.218Z,41.90
2022-10-18T04:42:29.278Z,42.67
2022-10-18T04:43:29.194Z,43.79
2022-10-18T04:44:29.236Z,44.59
2022-10-18T04:45:29.238Z,45.27
2022-10-18T04:46:29.179Z,45.62
2022-10-18T04:47:29.289Z,46.33
2022-10-18T04:48:29.196Z,47.14
2022-10-18T04:49:29.192Z,47.65
2022-10-18T04:50:29.142Z,48.35
2022-10-18T04:51:29.110Z,49.17
2022-10-18T04:52:29.120Z,50.09
2022-10-18T04:53:29.091Z,50.43
2022-10-18T04:54:29.135Z,51.40
2022-10-18T04:55:29.075Z,51.75
2022-10-18T04:56:29.112Z,52.56
2022-10-18T04:57:29.263Z,52.97
2022-10-18T04:58:29.057Z,53.41
2022-10-18T04:59:29.085Z,53.14
2022-10-18T05:00:29.029Z,52.97
2022-10-18T05:01:29.056Z,52.04
2022-10-18T05:02:29.184Z,51.43
2022-10-18T05:03:29.043Z,50.55
2022-10-18T05:04:28.982Z,50.99
2022-10-18T05:05:49.717Z,51.52
2022-10-18T05:06:29.031Z,52.73
2022-10-18T05:07:28.954Z,54.17
2022-10-18T05:08:28.957Z,55.96
2022-10-18T05:09:28.985Z,56.92
2022-10-18T05:10:28.936Z,57.35
2022-10-18T05:11:28.905Z,56.53
2022-10-18T05:12:29.242Z,56.46
2022-10-18T05:13:28.897Z,57.08
2022-10-18T05:14:28.996Z,57.35
2022-10-18T05:15:28.867Z,57.51
2022-10-18T05:16:28.823Z,57.99
2022-10-18T05:17:28.807Z,59.32
2022-10-18T05:18:28.844Z,61.15
2022-10-18T05:19:28.885Z,64.02
2022-10-18T05:20:28.834Z,66.27
2022-10-18T05:21:28.768Z,69.13
2022-10-18T05:22:29.026Z,70.72
2022-10-18T05:23:28.751Z,72.83
2022-10-18T05:24:28.780Z,73.73
2022-10-18T05:25:28.716Z,75.13
2022-10-18T05:26:28.701Z,75.54
2022-10-18T05:27:28.692Z,75.75
2022-10-18T05:28:44.103Z,75.61
2022-10-18T05:29:28.704Z,74.53
2022-10-18T05:30:28.706Z,73.86
2022-10-18T05:31:28.647Z,72.96
2022-10-18T05:32:28.792Z,71.89
2022-10-18T05:33:28.725Z,70.13
2022-10-18T05:34:28.623Z,68.34
2022-10-18T05:35:28.635Z,67.34
2022-10-18T05:36:28.647Z,65.80
2022-10-18T05:37:28.618Z,65.23
2022-10-18T05:38:28.615Z,64.52
2022-10-18T05:39:28.589Z,64.22
2022-10-18T05:40:28.567Z,64.12
2022-10-18T05:41:28.570Z,63.97
2022-10-18T05:42:28.725Z,63.53
2022-10-18T05:43:28.591Z,62.91
2022-10-18T05:44:28.519Z,61.83
2022-10-18T05:45:28.525Z,60.88
2022-10-18T05:46:28.508Z,59.87
2022-10-18T05:47:28.581Z,59.06
2022-10-18T05:48:28.477Z,58.20
2022-10-18T05:49:28.591Z,57.55
2022-10-18T05:50:28.467Z,57.31
2022-10-18T05:51:28.472Z,56.26
2022-10-18T05:52:28.443Z,55.40
2022-10-18T05:53:37.053Z,54.39
2022-10-18T05:54:28.426Z,53.34
2022-10-18T05:55:28.496Z,52.27
2022-10-18T05:56:28.602Z,51.81
2022-10-18T05:57:28.450Z,51.36
2022-10-18T05:58:28.390Z,50.92
2022-10-18T05:59:28.502Z,50.83
2022-10-18T06:00:28.353Z,50.74
2022-10-18T06:01:28.339Z,50.71
2022-10-18T06:02:28.401Z,50.46
2022-10-18T06:03:28.322Z,50.28
2022-10-18T06:04:28.332Z,50.40
2022-10-18T06:05:28.383Z,50.34
2022-10-18T06:06:28.355Z,50.25
2022-10-18T06:07:28.295Z,50.12
2022-10-18T06:08:28.284Z,50.03
2022-10-18T06:09:28.258Z,49.88
2022-10-18T06:10:28.260Z,49.76
2022-10-18T06:11:28.240Z,49.73
2022-10-18T06:12:28.298Z,49.65
2022-10-18T06:13:31.089Z,49.73
2022-10-18T06:14:28.212Z,49.59
2022-10-18T06:15:28.196Z,49.73
2022-10-18T06:16:32.259Z,49.91
2022-10-18T06:17:31.730Z,49.17
2022-10-18T06:18:28.235Z,48.66
2022-10-18T06:19:28.155Z,48.04
2022-10-18T06:20:28.149Z,47.52
2022-10-18T06:21:28.213Z,46.93
2022-10-18T06:22:28.158Z,46.64
2022-10-18T06:23:28.125Z,45.82
2022-10-18T06:24:28.107Z,44.83
2022-10-18T06:25:28.109Z,44.21
2022-10-18T06:26:28.169Z,43.07
2022-10-18T06:27:28.074Z,42.24
2022-10-18T06:28:28.114Z,41.31
2022-10-18T06:29:28.052Z,41.31
2022-10-18T06:30:28.057Z,41.48
2022-10-18T06:31:28.313Z,41.52
2022-10-18T06:32:28.032Z,41.69
2022-10-18T06:33:28.039Z,41.48
2022-10-18T06:34:28.004Z,41.52
2022-10-18T06:35:27.991Z,41.40
2022-10-18T06:36:28.039Z,41.27
2022-10-18T06:37:27.995Z,41.15
2022-10-18T06:38:27.968Z,40.99
2022-10-18T06:39:28.010Z,40.75
2022-10-18T06:40:27.988Z,40.16
2022-10-18T06:41:28.156Z,39.70
2022-10-18T06:42:27.921Z,40.12
2022-10-18T06:43:27.913Z,40.16
2022-10-18T06:44:27.960Z,40.08
2022-10-18T06:45:27.999Z,39.81
2022-10-18T06:46:27.922Z,39.62
2022-10-18T06:47:27.877Z,39.44
2022-10-18T06:48:27.885Z,39.62
2022-10-18T06:49:27.923Z,40.04
2022-10-18T06:50:27.840Z,40.75
2022-10-18T06:51:27.833Z,41.23
2022-10-18T06:52:27.825Z,41.98
2022-10-18T06:53:27.869Z,42.28
2022-10-18T06:54:27.899Z,42.89
2022-10-18T06:55:27.796Z,43.16
2022-10-18T06:56:27.786Z,43.61
2022-10-18T06:57:27.883Z,43.75
2022-10-18T06:58:27.812Z,43.98
2022-10-18T06:59:31.113Z,44.45
2022-10-18T07:00:27.746Z,44.78
2022-10-18T07:01:27.877Z,44.98
2022-10-18T07:02:27.722Z,45.12
2022-10-18T07:03:27.716Z,45.12
2022-10-18T07:04:27.697Z,45.27
2022-10-18T07:05:27.762Z,45.27
2022-10-18T07:06:27.725Z,45.32
2022-10-18T07:07:27.734Z,45.17
2022-10-18T07:08:27.665Z,45.42
2022-10-18T07:09:27.711Z,45.32
2022-10-18T07:10:27.639Z,46.12
2022-10-18T07:11:27.626Z,46.54
2022-10-18T07:12:27.618Z,47.06
2022-10-18T07:13:32.356Z,47.38
2022-10-18T07:14:29.153Z,48.07
2022-10-18T07:15:27.671Z,48.57
2022-10-18T07:16:27.584Z,49.59
2022-10-18T07:17:27.568Z,50.00
2022-10-18T07:18:27.559Z,50.86
2022-10-18T07:19:27.542Z,51.59
2022-10-18T07:20:27.543Z,52.53
2022-10-18T07:21:27.577Z,53.27
2022-10-18T07:22:30.299Z,54.25
2022-10-18T07:23:27.533Z,55.22
2022-10-18T07:24:27.553Z,56.76
2022-10-18T07:25:29.887Z,57.99
2022-10-18T07:26:27.529Z,59.06
2022-10-18T07:27:27.467Z,59.53
2022-10-18T07:28:27.538Z,61.15
2022-10-18T07:29:27.486Z,62.11
2022-10-18T07:30:27.434Z,63.34
2022-10-18T07:31:27.425Z,65.23
2022-10-18T07:32:27.461Z,67.40
2022-10-18T07:33:27.406Z,68.34
2022-10-18T07:34:27.385Z,68.90
2022-10-18T07:35:27.383Z,70.07
2022-10-18T07:36:27.389Z,70.36
2022-10-18T07:37:29.430Z,71.39
2022-10-18T07:38:27.356Z,71.51
2022-10-18T07:39:27.339Z,71.57
2022-10-18T07:40:27.370Z,72.51
2022-10-18T07:41:27.321Z,72.70
2022-10-18T07:42:27.347Z,73.15
2022-10-18T07:43:27.308Z,73.93
2022-10-18T07:44:27.381Z,74.13
2022-10-18T07:45:27.361Z,75.47
2022-10-18T07:46:27.271Z,76.03
2022-10-18T07:47:29.029Z,77.37
2022-10-18T07:48:27.262Z,78.10
2022-10-18T07:49:27.237Z,79.75
2022-10-18T07:50:27.277Z,81.23
2022-10-18T07:51:27.223Z,81.63
2022-10-18T07:52:27.215Z,83.68
2022-10-18T07:53:27.198Z,83.51
2022-10-18T07:54:27.230Z,84.62
2022-10-18T07:55:27.216Z,85.14
2022-10-18T07:56:27.327Z,85.22
2022-10-18T07:57:27.187Z,86.20
2022-10-18T07:58:27.144Z,89.93
2022-10-18T07:59:27.140Z,91.01
2022-10-18T08:00:27.134Z,92.94
2022-10-18T08:01:27.190Z,95.29
2022-10-18T08:02:27.158Z,95.07
2022-10-18T08:03:27.098Z,94.30
2022-10-18T08:04:27.089Z,95.95
2022-10-18T08:05:27.203Z,92.53
2022-10-18T08:06:27.087Z,91.41
2022-10-18T08:07:27.050Z,89.64
2022-10-18T08:08:27.089Z,89.15
2022-10-18T08:09:27.040Z,87.28
2022-10-18T08:10:27.072Z,88.40
2022-10-18T08:11:27.014Z,88.40
2022-10-18T08:12:27.089Z,91.11
2022-10-18T08:13:26.992Z,92.22
2022-10-18T08:14:27.027Z,93.57
2022-10-18T08:15:26.979Z,95.07
2022-10-18T08:16:27.063Z,94.03
2022-10-18T08:17:26.951Z,96.32
2022-10-18T08:18:26.937Z,100.57
2022-10-18T08:19:26.943Z,103.52
2022-10-18T08:20:30.907Z,107.81
2022-10-18T08:21:26.971Z,112.33
2022-10-18T08:22:26.901Z,112.94
2022-10-18T08:23:26.909Z,113.87
2022-10-18T08:24:26.875Z,116.91
2022-10-18T08:25:26.971Z,117.82
2022-10-18T08:26:26.857Z,117.32
2022-10-18T08:27:26.855Z,118.67
2022-10-18T08:28:26.910Z,118.07
2022-10-18T08:29:30.790Z,117.32
2022-10-18T08:30:26.853Z,116.18
2022-10-18T08:31:26.810Z,116.50
2022-10-18T08:32:26.854Z,117.99
2022-10-18T08:33:26.794Z,117.00
2022-10-18T08:34:26.850Z,114.26
2022-10-18T08:35:26.771Z,113.02
2022-10-18T08:36:26.809Z,111.35
2022-10-18T08:37:26.754Z,110.03
2022-10-18T08:38:26.734Z,107.33
2022-10-18T08:39:26.872Z,108.31
2022-10-18T08:40:26.718Z,111.35
2022-10-18T08:41:26.805Z,114.65
2022-10-18T08:42:26.710Z,113.87
2022-10-18T08:43:26.734Z,116.18
2022-10-18T08:44:26.687Z,115.93
2022-10-18T08:45:41.092Z,115.69
2022-10-18T08:46:26.660Z,115.69
2022-10-18T08:47:26.706Z,116.91
2022-10-18T08:48:26.637Z,115.53
2022-10-18T08:49:26.800Z,120.12
2022-10-18T08:50:26.628Z,130.60
2022-10-18T08:51:26.617Z,141.01
2022-10-18T08:52:26.678Z,150.04
2022-10-18T08:53:26.648Z,156.84
2022-10-18T08:54:26.570Z,162.04
2022-10-18T08:55:26.560Z,159.24
2022-10-18T08:56:26.611Z,159.24
2022-10-18T08:57:26.552Z,162.83
2022-10-18T08:58:26.532Z,166.42
2022-10-18T08:59:26.608Z,166.75
2022-10-18T09:00:26.536Z,165.59
2022-10-18T09:01:26.502Z,165.09
2022-10-18T09:02:26.562Z,161.88
2022-10-18T09:03:26.513Z,159.24
2022-10-18T09:04:26.473Z,156.10
2022-10-18T09:05:26.506Z,150.18
2022-10-18T09:06:26.447Z,148.17
2022-10-18T09:07:26.494Z,148.30
2022-10-18T09:08:26.428Z,143.94
2022-10-18T09:09:26.435Z,144.19
2022-10-18T09:10:26.419Z,140.18
2022-10-18T09:11:26.444Z,141.73
2022-10-18T09:12:26.439Z,140.77
2022-10-18T09:13:26.385Z,142.70
2022-10-18T09:14:26.368Z,145.96
2022-10-18T09:15:26.413Z,150.04
2022-10-18T09:16:26.358Z,145.20
2022-10-18T09:17:26.393Z,142.21
2022-10-18T09:18:26.327Z,144.31
2022-10-18T09:19:26.406Z,145.71
2022-10-18T09:20:26.308Z,151.00
2022-10-18T09:21:26.363Z,154.08
2022-10-18T09:22:26.289Z,156.54
2022-10-18T09:23:26.288Z,156.99
2022-10-18T09:24:26.283Z,159.09
2022-10-18T09:25:26.345Z,159.70
2022-10-18T09:26:26.295Z,159.40
2022-10-18T09:27:26.313Z,163.47
2022-10-18T09:28:26.271Z,164.60
2022-10-18T09:29:26.231Z,162.51
2022-10-18T09:30:26.210Z,157.43
2022-10-18T09:31:26.199Z,152.94
2022-10-18T09:32:26.191Z,149.24
2022-10-18T09:33:26.241Z,149.64
2022-10-18T09:34:26.182Z,151.69
2022-10-18T09:35:26.165Z,150.45
2022-10-18T09:36:26.154Z,153.08
2022-10-18T09:37:26.189Z,151.83
2022-10-18T09:39:26.127Z,162.51
2022-10-18T09:40:26.246Z,167.09
2022-10-18T09:41:26.109Z,174.27
2022-10-18T09:42:26.088Z,172.10
2022-10-18T09:43:26.134Z,173.90
2022-10-18T09:44:26.064Z,178.19
2022-10-18T09:45:26.068Z,184.11
2022-10-18T09:46:26.046Z,191.42
2022-10-18T09:47:26.083Z,190.53
2022-10-18T09:48:26.081Z,195.31
2022-10-18T09:49:26.020Z,197.91
2022-10-18T09:50:26.013Z,200.70
2022-10-18T09:51:26.026Z,206.41
2022-10-18T09:52:25.988Z,208.38
2022-10-18T09:53:26.083Z,208.78
2022-10-18T09:54:25.985Z,214.82
2022-10-18T09:55:25.974Z,215.95
2022-10-18T09:56:25.947Z,218.84
2022-10-18T09:57:25.951Z,221.06
2022-10-18T09:58:25.988Z,224.56
2022-10-18T09:59:25.927Z,226.74
2022-10-18T10:00:25.917Z,230.74
2022-10-18T10:01:25.930Z,238.31
2022-10-18T10:02:25.982Z,241.48
2022-10-18T10:03:25.928Z,247.14
2022-10-18T10:04:25.872Z,246.95
2022-10-18T10:05:25.885Z,261.36
2022-10-18T10:06:25.973Z,265.39
2022-10-18T10:07:27.650Z,274.30
2022-10-18T10:08:25.836Z,280.66
2022-10-18T10:09:25.831Z,279.70
2022-10-18T10:10:25.809Z,282.85
2022-10-18T10:11:25.847Z,289.61
2022-10-18T10:12:25.784Z,283.09
2022-10-18T10:13:25.780Z,288.34
2022-10-18T10:14:26.032Z,291.68
2022-10-18T10:15:28.141Z,293.78
2022-10-18T10:16:25.755Z,306.16
2022-10-18T10:17:25.771Z,316.23
2022-10-18T10:18:25.726Z,326.66
2022-10-18T10:19:25.723Z,327.64
2022-10-18T10:20:25.717Z,335.72
2022-10-18T10:21:25.708Z,335.72
2022-10-18T10:22:25.687Z,353.89
2022-10-18T10:23:25.701Z,360.92
2022-10-18T10:24:28.817Z,356.20
2022-10-18T10:25:25.672Z,352.36
2022-10-18T10:26:25.651Z,356.98
2022-10-18T10:27:25.685Z,371.17
2022-10-18T10:28:25.716Z,382.68
2022-10-18T10:29:43.517Z,383.57
2022-10-18T10:30:25.619Z,390.33
2022-10-18T10:31:25.606Z,389.18
2022-10-18T10:33:25.616Z,397.09
2022-10-18T10:34:25.598Z,399.00
2022-10-18T10:35:41.534Z,400.44
2022-10-18T10:36:25.559Z,404.10
2022-10-18T10:37:25.544Z,414.43
2022-10-18T10:38:25.570Z,424.22
2022-10-18T10:39:25.530Z,424.49
2022-10-18T10:40:28.544Z,432.79
2022-10-18T10:41:25.554Z,436.77
2022-10-18T10:42:25.501Z,445.27
2022-10-18T10:43:37.637Z,446.76
2022-10-18T10:44:25.513Z,438.22
2022-10-18T10:45:25.487Z,432.51
2022-10-18T10:46:25.455Z,429.43
2022-10-18T10:47:25.450Z,422.34
2022-10-18T10:48:27.840Z,404.59
2022-10-18T10:49:39.580Z,398.52
2022-10-18T10:50:25.518Z,392.17
2022-10-18T10:51:25.406Z,391.24
2022-10-18T10:52:28.037Z,389.41
2022-10-18T10:53:25.392Z,388.73
2022-10-18T10:54:25.375Z,398.52
2022-10-18T10:55:34.918Z,402.87
2022-10-18T10:56:25.398Z,402.14
2022-10-18T10:57:25.373Z,404.34
2022-10-18T10:58:25.338Z,415.21
2022-10-18T10:59:25.320Z,421.53
2022-10-18T11:00:25.344Z,421.27
2022-10-18T11:01:25.301Z,414.17
2022-10-18T11:02:25.330Z,417.56
2022-10-18T11:03:29.795Z,420.73
2022-10-18T11:04:25.330Z,432.23
2022-10-18T11:05:25.288Z,430.27
2022-10-18T11:06:25.267Z,427.23
2022-10-18T11:07:25.290Z,407.07
2022-10-18T11:08:25.252Z,391.94
2022-10-18T11:09:25.236Z,403.61
2022-10-18T11:10:25.225Z,391.94
2022-10-18T11:11:25.216Z,385.12
2022-10-18T11:12:25.304Z,383.79
2022-10-18T11:13:25.197Z,381.80
2022-10-18T11:14:26.465Z,370.75
2022-10-18T11:15:25.169Z,382.68
2022-10-18T11:16:25.164Z,380.93
2022-10-18T11:17:25.167Z,368.65
2022-10-18T11:18:25.185Z,353.89
2022-10-18T11:19:27.766Z,351.23
2022-10-18T11:20:25.116Z,350.10
2022-10-18T11:21:25.106Z,355.04
2022-10-18T11:22:25.107Z,360.13
2022-10-18T11:23:25.143Z,350.85
2022-10-18T11:24:25.079Z,349.72
2022-10-18T11:25:25.115Z,347.49
2022-10-18T11:26:25.071Z,343.84
2022-10-18T11:27:25.067Z,332.98
2022-10-18T11:28:25.091Z,343.48
2022-10-18T11:29:25.125Z,344.93
2022-10-18T11:30:25.038Z,349.35
2022-10-18T11:31:25.148Z,354.27
2022-10-18T11:32:24.995Z,361.72
2022-10-18T11:33:38.302Z,374.14
2022-10-18T11:34:24.995Z,399.24
2022-10-18T11:35:25.018Z,417.03
2022-10-18T11:36:24.959Z,433.36
2022-10-18T11:37:31.078Z,425.58
2022-10-18T11:38:24.940Z,417.30
2022-10-18T11:39:24.922Z,421.00
2022-10-18T11:40:25.005Z,439.38
2022-10-18T11:41:24.904Z,447.67
2022-10-18T11:42:24.894Z,438.79
2022-10-18T11:43:30.297Z,461.02
2022-10-18T11:44:24.888Z,487.76
2022-10-18T11:45:24.965Z,481.40
2022-10-18T11:46:24.862Z,471.49
2022-10-18T11:47:24.856Z,458.16
2022-10-18T11:48:24.846Z,445.27
2022-10-18T11:49:24.872Z,433.92
2022-10-18T11:50:24.827Z,429.71
2022-10-18T11:51:34.209Z,414.43
2022-10-18T11:52:24.857Z,401.90
2022-10-18T11:53:24.886Z,392.63
2022-10-18T11:54:24.820Z,390.55
2022-10-18T11:55:27.689Z,387.59
2022-10-18T11:56:24.849Z,384.45
2022-10-18T11:57:24.800Z,386.47
2022-10-18T11:58:24.793Z,411.10
2022-10-18T11:59:24.804Z,404.10
2022-10-18T12:00:24.847Z,394.26
2022-10-18T12:01:27.760Z,378.91
2022-10-18T12:02:24.832Z,375.00
2022-10-18T12:03:24.754Z,376.73
2022-10-18T12:04:24.801Z,393.80
2022-10-18T12:05:25.130Z,396.38
2022-10-18T12:06:24.785Z,404.83
2022-10-18T12:07:27.722Z,425.31
2022-10-18T12:08:24.644Z,440.54
2022-10-18T12:09:24.636Z,465.22
2022-10-18T12:10:37.715Z,487.05
2022-10-18T12:11:24.753Z,483.50
2022-10-18T12:12:24.646Z,484.56
2022-10-18T12:13:24.597Z,469.83
2022-10-18T12:14:24.579Z,467.84
2022-10-18T12:15:24.596Z,494.30
2022-10-18T12:16:39.236Z,496.51
2022-10-18T12:17:44.020Z,491.01
2022-10-18T12:18:24.577Z,507.51
2022-10-18T12:19:26.784Z,504.05
2022-10-18T12:20:24.529Z,505.20
2022-10-18T12:21:25.942Z,484.21
2022-10-18T12:22:24.536Z,461.66
2022-10-18T12:23:24.536Z,454.71
2022-10-18T12:24:24.479Z,447.36
2022-10-18T12:25:24.474Z,422.87
2022-10-18T12:26:24.506Z,441.71
2022-10-18T12:27:24.499Z,473.85
2022-10-18T12:28:24.590Z,472.50
2022-10-18T12:29:24.512Z,472.50
2022-10-18T12:30:24.475Z,471.16
2022-10-18T12:31:24.413Z,485.98
2022-10-18T12:32:24.426Z,494.67
2022-10-18T12:33:28.166Z,483.15
2022-10-18T12:34:24.385Z,483.50
2022-10-18T12:35:24.366Z,482.10
2022-10-18T12:36:24.430Z,476.23
2022-10-18T12:37:24.366Z,462.31
2022-10-18T12:38:24.337Z,468.83
2022-10-18T12:39:32.475Z,472.84
2022-10-18T12:40:24.382Z,469.49
2022-10-18T12:41:24.304Z,464.89
2022-10-18T12:42:24.305Z,458.48
2022-10-18T12:43:24.307Z,467.84
2022-10-18T12:44:24.331Z,526.00
2022-10-18T12:45:24.275Z,572.70
2022-10-18T12:46:24.407Z,588.95
2022-10-18T12:47:24.244Z,624.38
2022-10-18T12:48:24.243Z,630.90